sensor_id;sensor_type;location;lat;lon;timestamp;P1;durP1;ratioP1;P2;durP2;ratioP2
57605;SDS011;43430;48.204;11.556;2022-12-11T00:01:22;38.90;;;14.77;;
57605;SDS011;43430;48.204;11.556;2022-12-11T00:03:48;37.58;;;15.55;;
57605;SDS011;43430;48.204;11.556;2022-12-11T00:06:14;32.45;;;14.38;;
57605;SDS011;43430;48.204;11.556;2022-12-11T00:08:42;36.58;;;15.05;;
57605;SDS011;43430;48.204;11.556;2022-12-11T00:11:08;36.45;;;14.90;;
57605;SDS011;43430;48.204;11.556;2022-12-11T00:13:36;30.77;;;12.73;;
57605;SDS011;43430;48.204;11.556;2022-12-11T00:16:02;32.13;;;14.43;;
57605;SDS011;43430;48.204;11.556;2022-12-11T00:18:28;35.22;;;14.02;;
57605;SDS011;43430;48.204;11.556;2022-12-11T00:20:53;36.38;;;15.23;;
57605;SDS011;43430;48.204;11.556;2022-12-11T00:23:18;38.47;;;15.55;;
57605;SDS011;43430;48.204;11.556;2022-12-11T00:25:44;37.05;;;14.93;;
57605;SDS011;43430;48.204;11.556;2022-12-11T00:28:14;42.58;;;16.23;;
57605;SDS011;43430;48.204;11.556;2022-12-11T00:30:43;42.03;;;16.75;;
57605;SDS011;43430;48.204;11.556;2022-12-11T00:33:09;35.75;;;15.75;;
57605;SDS011;43430;48.204;11.556;2022-12-11T00:35:42;40.65;;;15.55;;
57605;SDS011;43430;48.204;11.556;2022-12-11T00:38:14;44.20;;;15.93;;
57605;SDS011;43430;48.204;11.556;2022-12-11T00:40:41;36.13;;;15.73;;
57605;SDS011;43430;48.204;11.556;2022-12-11T00:43:07;36.53;;;15.75;;
57605;SDS011;43430;48.204;11.556;2022-12-11T00:45:36;36.75;;;14.68;;
57605;SDS011;43430;48.204;11.556;2022-12-11T00:48:05;40.65;;;15.23;;
57605;SDS011;43430;48.204;11.556;2022-12-11T00:50:31;37.63;;;15.60;;
57605;SDS011;43430;48.204;11.556;2022-12-11T00:52:56;36.95;;;15.52;;
57605;SDS011;43430;48.204;11.556;2022-12-11T00:55:21;33.67;;;14.23;;
57605;SDS011;43430;48.204;11.556;2022-12-11T00:57:49;36.60;;;14.93;;
57605;SDS011;43430;48.204;11.556;2022-12-11T01:00:15;38.90;;;14.93;;
57605;SDS011;43430;48.204;11.556;2022-12-11T01:02:41;36.10;;;15.18;;
57605;SDS011;43430;48.204;11.556;2022-12-11T01:05:08;37.70;;;14.60;;
57605;SDS011;43430;48.204;11.556;2022-12-11T01:07:34;38.45;;;14.93;;
57605;SDS011;43430;48.204;11.556;2022-12-11T01:10:00;36.42;;;14.10;;
57605;SDS011;43430;48.204;11.556;2022-12-11T01:12:44;32.92;;;13.88;;
57605;SDS011;43430;48.204;11.556;2022-12-11T01:15:09;33.33;;;13.95;;
57605;SDS011;43430;48.204;11.556;2022-12-11T01:17:35;35.55;;;13.48;;
57605;SDS011;43430;48.204;11.556;2022-12-11T01:20:01;36.10;;;14.25;;
57605;SDS011;43430;48.204;11.556;2022-12-11T01:22:28;35.47;;;13.23;;
57605;SDS011;43430;48.204;11.556;2022-12-11T01:24:54;35.15;;;14.15;;
57605;SDS011;43430;48.204;11.556;2022-12-11T01:27:20;36.15;;;14.50;;
57605;SDS011;43430;48.204;11.556;2022-12-11T01:29:45;35.75;;;14.02;;
57605;SDS011;43430;48.204;11.556;2022-12-11T01:32:11;34.00;;;14.43;;
57605;SDS011;43430;48.204;11.556;2022-12-11T01:34:36;32.40;;;13.73;;
57605;SDS011;43430;48.204;11.556;2022-12-11T01:37:04;32.00;;;12.32;;
57605;SDS011;43430;48.204;11.556;2022-12-11T01:39:32;29.52;;;12.57;;
57605;SDS011;43430;48.204;11.556;2022-12-11T01:41:59;32.15;;;12.98;;
57605;SDS011;43430;48.204;11.556;2022-12-11T01:46:51;35.03;;;13.45;;
57605;SDS011;43430;48.204;11.556;2022-12-11T01:49:19;29.15;;;12.32;;
57605;SDS011;43430;48.204;11.556;2022-12-11T01:51:51;32.05;;;12.10;;
57605;SDS011;43430;48.204;11.556;2022-12-11T01:54:20;29.83;;;12.30;;
57605;SDS011;43430;48.204;11.556;2022-12-11T01:56:48;32.08;;;12.55;;
57605;SDS011;43430;48.204;11.556;2022-12-11T01:59:17;32.45;;;13.27;;
57605;SDS011;43430;48.204;11.556;2022-12-11T02:01:46;26.65;;;10.48;;
57605;SDS011;43430;48.204;11.556;2022-12-11T02:04:15;32.05;;;12.63;;
57605;SDS011;43430;48.204;11.556;2022-12-11T02:06:43;31.20;;;13.27;;
57605;SDS011;43430;48.204;11.556;2022-12-11T02:09:15;30.85;;;12.43;;
57605;SDS011;43430;48.204;11.556;2022-12-11T02:12:03;33.10;;;13.00;;
57605;SDS011;43430;48.204;11.556;2022-12-11T02:28:34;31.95;;;12.07;;
57605;SDS011;43430;48.204;11.556;2022-12-11T02:31:21;25.88;;;11.27;;
57605;SDS011;43430;48.204;11.556;2022-12-11T02:36:37;25.77;;;11.23;;
57605;SDS011;43430;48.204;11.556;2022-12-11T02:39:08;26.58;;;10.95;;
57605;SDS011;43430;48.204;11.556;2022-12-11T02:41:37;25.17;;;11.07;;
57605;SDS011;43430;48.204;11.556;2022-12-11T02:44:06;28.60;;;11.32;;
57605;SDS011;43430;48.204;11.556;2022-12-11T02:46:34;28.25;;;11.48;;
57605;SDS011;43430;48.204;11.556;2022-12-11T02:49:06;27.42;;;11.60;;
57605;SDS011;43430;48.204;11.556;2022-12-11T02:51:40;31.27;;;12.30;;
57605;SDS011;43430;48.204;11.556;2022-12-11T02:54:18;29.23;;;10.60;;
57605;SDS011;43430;48.204;11.556;2022-12-11T02:56:49;26.35;;;11.13;;
57605;SDS011;43430;48.204;11.556;2022-12-11T02:59:19;26.05;;;9.82;;
57605;SDS011;43430;48.204;11.556;2022-12-11T03:01:54;25.35;;;11.52;;
57605;SDS011;43430;48.204;11.556;2022-12-11T03:04:19;23.85;;;10.88;;
57605;SDS011;43430;48.204;11.556;2022-12-11T03:06:50;28.60;;;11.45;;
57605;SDS011;43430;48.204;11.556;2022-12-11T03:09:19;24.50;;;9.80;;
57605;SDS011;43430;48.204;11.556;2022-12-11T03:11:45;24.13;;;9.98;;
57605;SDS011;43430;48.204;11.556;2022-12-11T03:14:11;27.42;;;10.77;;
57605;SDS011;43430;48.204;11.556;2022-12-11T03:16:59;21.85;;;9.75;;
57605;SDS011;43430;48.204;11.556;2022-12-11T03:22:18;25.02;;;10.90;;
57605;SDS011;43430;48.204;11.556;2022-12-11T03:24:54;20.60;;;8.73;;
57605;SDS011;43430;48.204;11.556;2022-12-11T03:27:33;24.80;;;9.50;;
57605;SDS011;43430;48.204;11.556;2022-12-11T03:30:06;22.13;;;9.52;;
57605;SDS011;43430;48.204;11.556;2022-12-11T03:32:37;21.30;;;9.07;;
57605;SDS011;43430;48.204;11.556;2022-12-11T03:35:27;20.00;;;8.27;;
57605;SDS011;43430;48.204;11.556;2022-12-11T03:38:21;20.17;;;8.68;;
57605;SDS011;43430;48.204;11.556;2022-12-11T03:40:48;21.75;;;9.18;;
57605;SDS011;43430;48.204;11.556;2022-12-11T03:43:17;22.13;;;9.07;;
57605;SDS011;43430;48.204;11.556;2022-12-11T03:45:45;22.63;;;10.00;;
57605;SDS011;43430;48.204;11.556;2022-12-11T03:48:13;21.60;;;9.05;;
57605;SDS011;43430;48.204;11.556;2022-12-11T03:50:41;19.27;;;8.88;;
57605;SDS011;43430;48.204;11.556;2022-12-11T03:53:08;21.27;;;8.88;;
57605;SDS011;43430;48.204;11.556;2022-12-11T03:55:35;22.40;;;8.45;;
57605;SDS011;43430;48.204;11.556;2022-12-11T03:58:03;22.20;;;8.88;;
57605;SDS011;43430;48.204;11.556;2022-12-11T04:00:32;21.73;;;8.50;;
57605;SDS011;43430;48.204;11.556;2022-12-11T04:02:57;22.90;;;9.73;;
57605;SDS011;43430;48.204;11.556;2022-12-11T04:05:53;17.90;;;8.35;;
57605;SDS011;43430;48.204;11.556;2022-12-11T04:08:22;21.95;;;9.27;;
57605;SDS011;43430;48.204;11.556;2022-12-11T04:10:48;23.95;;;9.55;;
57605;SDS011;43430;48.204;11.556;2022-12-11T04:13:38;24.23;;;9.15;;
57605;SDS011;43430;48.204;11.556;2022-12-11T04:16:05;20.58;;;8.00;;
57605;SDS011;43430;48.204;11.556;2022-12-11T04:18:31;19.13;;;8.15;;
57605;SDS011;43430;48.204;11.556;2022-12-11T04:21:15;18.98;;;8.20;;
57605;SDS011;43430;48.204;11.556;2022-12-11T04:24:00;19.80;;;8.68;;
57605;SDS011;43430;48.204;11.556;2022-12-11T04:26:39;19.60;;;7.97;;
57605;SDS011;43430;48.204;11.556;2022-12-11T04:29:05;19.63;;;8.27;;
57605;SDS011;43430;48.204;11.556;2022-12-11T04:31:30;19.15;;;8.55;;
57605;SDS011;43430;48.204;11.556;2022-12-11T04:33:56;24.90;;;9.43;;
57605;SDS011;43430;48.204;11.556;2022-12-11T04:36:22;16.98;;;7.53;;
57605;SDS011;43430;48.204;11.556;2022-12-11T04:38:47;19.48;;;7.68;;
57605;SDS011;43430;48.204;11.556;2022-12-11T04:41:13;21.35;;;8.57;;
57605;SDS011;43430;48.204;11.556;2022-12-11T04:43:40;19.77;;;7.93;;
57605;SDS011;43430;48.204;11.556;2022-12-11T04:46:13;18.48;;;7.60;;
57605;SDS011;43430;48.204;11.556;2022-12-11T04:48:40;19.33;;;6.93;;
57605;SDS011;43430;48.204;11.556;2022-12-11T04:51:15;18.58;;;7.97;;
57605;SDS011;43430;48.204;11.556;2022-12-11T04:53:47;17.55;;;8.02;;
57605;SDS011;43430;48.204;11.556;2022-12-11T04:56:18;19.50;;;7.80;;
57605;SDS011;43430;48.204;11.556;2022-12-11T04:58:45;18.95;;;7.80;;
57605;SDS011;43430;48.204;11.556;2022-12-11T05:01:18;14.60;;;6.18;;
57605;SDS011;43430;48.204;11.556;2022-12-11T05:03:46;17.55;;;7.38;;
57605;SDS011;43430;48.204;11.556;2022-12-11T05:06:12;15.60;;;6.93;;
57605;SDS011;43430;48.204;11.556;2022-12-11T05:08:38;17.23;;;7.22;;
57605;SDS011;43430;48.204;11.556;2022-12-11T05:11:06;15.82;;;6.72;;
57605;SDS011;43430;48.204;11.556;2022-12-11T05:13:36;13.57;;;5.38;;
57605;SDS011;43430;48.204;11.556;2022-12-11T05:16:12;15.07;;;6.18;;
57605;SDS011;43430;48.204;11.556;2022-12-11T05:18:39;18.17;;;7.40;;
57605;SDS011;43430;48.204;11.556;2022-12-11T05:21:06;16.60;;;6.32;;
57605;SDS011;43430;48.204;11.556;2022-12-11T05:23:34;18.67;;;7.30;;
57605;SDS011;43430;48.204;11.556;2022-12-11T05:26:09;14.45;;;5.93;;
57605;SDS011;43430;48.204;11.556;2022-12-11T05:28:37;16.58;;;6.72;;
57605;SDS011;43430;48.204;11.556;2022-12-11T05:31:05;16.45;;;7.00;;
57605;SDS011;43430;48.204;11.556;2022-12-11T05:33:33;15.35;;;5.57;;
57605;SDS011;43430;48.204;11.556;2022-12-11T05:36:08;18.23;;;7.05;;
57605;SDS011;43430;48.204;11.556;2022-12-11T05:38:39;14.73;;;7.00;;
57605;SDS011;43430;48.204;11.556;2022-12-11T05:41:05;15.50;;;6.00;;
57605;SDS011;43430;48.204;11.556;2022-12-11T05:43:32;14.43;;;6.45;;
57605;SDS011;43430;48.204;11.556;2022-12-11T05:46:08;14.55;;;5.80;;
57605;SDS011;43430;48.204;11.556;2022-12-11T05:48:42;16.98;;;6.35;;
57605;SDS011;43430;48.204;11.556;2022-12-11T05:51:09;14.63;;;6.05;;
57605;SDS011;43430;48.204;11.556;2022-12-11T05:53:35;14.27;;;5.65;;
57605;SDS011;43430;48.204;11.556;2022-12-11T05:56:02;13.35;;;6.15;;
57605;SDS011;43430;48.204;11.556;2022-12-11T05:58:32;15.07;;;5.95;;
57605;SDS011;43430;48.204;11.556;2022-12-11T06:00:58;13.80;;;5.55;;
57605;SDS011;43430;48.204;11.556;2022-12-11T06:03:25;13.57;;;6.15;;
57605;SDS011;43430;48.204;11.556;2022-12-11T06:05:50;15.90;;;6.43;;
57605;SDS011;43430;48.204;11.556;2022-12-11T06:08:16;13.07;;;5.63;;
57605;SDS011;43430;48.204;11.556;2022-12-11T06:10:45;13.07;;;6.05;;
57605;SDS011;43430;48.204;11.556;2022-12-11T06:13:11;15.07;;;6.30;;
57605;SDS011;43430;48.204;11.556;2022-12-11T06:15:37;19.40;;;6.47;;
57605;SDS011;43430;48.204;11.556;2022-12-11T06:18:05;15.23;;;6.60;;
57605;SDS011;43430;48.204;11.556;2022-12-11T06:20:34;18.00;;;7.22;;
57605;SDS011;43430;48.204;11.556;2022-12-11T06:23:03;14.32;;;5.80;;
57605;SDS011;43430;48.204;11.556;2022-12-11T06:25:29;18.00;;;6.82;;
57605;SDS011;43430;48.204;11.556;2022-12-11T06:27:55;17.42;;;7.78;;
57605;SDS011;43430;48.204;11.556;2022-12-11T06:30:21;19.17;;;6.78;;
57605;SDS011;43430;48.204;11.556;2022-12-11T06:32:47;16.63;;;6.82;;
57605;SDS011;43430;48.204;11.556;2022-12-11T06:35:12;17.42;;;7.07;;
57605;SDS011;43430;48.204;11.556;2022-12-11T06:37:38;17.23;;;6.55;;
57605;SDS011;43430;48.204;11.556;2022-12-11T06:40:07;18.73;;;7.95;;
57605;SDS011;43430;48.204;11.556;2022-12-11T06:42:34;18.50;;;8.70;;
57605;SDS011;43430;48.204;11.556;2022-12-11T06:45:07;18.52;;;7.18;;
57605;SDS011;43430;48.204;11.556;2022-12-11T06:47:34;17.30;;;7.43;;
57605;SDS011;43430;48.204;11.556;2022-12-11T06:49:59;19.77;;;8.20;;
57605;SDS011;43430;48.204;11.556;2022-12-11T06:52:26;18.00;;;8.25;;
57605;SDS011;43430;48.204;11.556;2022-12-11T06:54:52;23.42;;;8.43;;
57605;SDS011;43430;48.204;11.556;2022-12-11T06:57:20;22.23;;;8.75;;
57605;SDS011;43430;48.204;11.556;2022-12-11T06:59:49;23.63;;;7.70;;
57605;SDS011;43430;48.204;11.556;2022-12-11T07:02:15;25.67;;;8.88;;
57605;SDS011;43430;48.204;11.556;2022-12-11T07:04:42;21.95;;;8.63;;
57605;SDS011;43430;48.204;11.556;2022-12-11T07:07:08;24.05;;;9.25;;
57605;SDS011;43430;48.204;11.556;2022-12-11T07:09:38;25.27;;;10.23;;
57605;SDS011;43430;48.204;11.556;2022-12-11T07:12:04;20.77;;;9.13;;
57605;SDS011;43430;48.204;11.556;2022-12-11T07:14:33;23.95;;;9.25;;
57605;SDS011;43430;48.204;11.556;2022-12-11T07:16:59;22.92;;;9.60;;
57605;SDS011;43430;48.204;11.556;2022-12-11T07:19:27;20.40;;;9.35;;
57605;SDS011;43430;48.204;11.556;2022-12-11T07:21:53;20.50;;;9.13;;
57605;SDS011;43430;48.204;11.556;2022-12-11T07:24:19;25.98;;;9.98;;
57605;SDS011;43430;48.204;11.556;2022-12-11T07:26:44;24.90;;;9.52;;
57605;SDS011;43430;48.204;11.556;2022-12-11T07:29:10;21.40;;;8.70;;
57605;SDS011;43430;48.204;11.556;2022-12-11T07:31:43;26.15;;;10.10;;
57605;SDS011;43430;48.204;11.556;2022-12-11T07:36:35;24.60;;;9.52;;
57605;SDS011;43430;48.204;11.556;2022-12-11T07:39:01;23.20;;;9.32;;
57605;SDS011;43430;48.204;11.556;2022-12-11T07:41:29;24.60;;;10.68;;
57605;SDS011;43430;48.204;11.556;2022-12-11T07:43:58;26.35;;;10.55;;
57605;SDS011;43430;48.204;11.556;2022-12-11T07:46:25;24.52;;;9.80;;
57605;SDS011;43430;48.204;11.556;2022-12-11T07:48:52;24.08;;;9.50;;
57605;SDS011;43430;48.204;11.556;2022-12-11T07:51:19;23.75;;;9.80;;
57605;SDS011;43430;48.204;11.556;2022-12-11T07:53:50;25.02;;;10.65;;
57605;SDS011;43430;48.204;11.556;2022-12-11T07:56:17;22.10;;;9.63;;
57605;SDS011;43430;48.204;11.556;2022-12-11T07:58:43;24.50;;;9.75;;
57605;SDS011;43430;48.204;11.556;2022-12-11T08:01:19;25.58;;;10.15;;
57605;SDS011;43430;48.204;11.556;2022-12-11T08:03:47;23.10;;;9.93;;
57605;SDS011;43430;48.204;11.556;2022-12-11T08:06:15;27.10;;;10.60;;
57605;SDS011;43430;48.204;11.556;2022-12-11T08:08:42;25.30;;;10.60;;
57605;SDS011;43430;48.204;11.556;2022-12-11T08:11:09;23.25;;;10.23;;
57605;SDS011;43430;48.204;11.556;2022-12-11T08:13:36;18.58;;;9.02;;
57605;SDS011;43430;48.204;11.556;2022-12-11T08:16:03;25.20;;;10.82;;
57605;SDS011;43430;48.204;11.556;2022-12-11T08:18:29;26.48;;;11.05;;
57605;SDS011;43430;48.204;11.556;2022-12-11T08:20:54;22.95;;;10.48;;
57605;SDS011;43430;48.204;11.556;2022-12-11T08:23:20;22.70;;;10.07;;
57605;SDS011;43430;48.204;11.556;2022-12-11T08:25:49;26.27;;;9.13;;
57605;SDS011;43430;48.204;11.556;2022-12-11T08:28:14;21.73;;;9.30;;
57605;SDS011;43430;48.204;11.556;2022-12-11T08:30:40;24.55;;;10.10;;
57605;SDS011;43430;48.204;11.556;2022-12-11T08:33:05;22.92;;;9.38;;
57605;SDS011;43430;48.204;11.556;2022-12-11T08:35:36;23.95;;;10.10;;
57605;SDS011;43430;48.204;11.556;2022-12-11T08:38:05;21.25;;;9.55;;
57605;SDS011;43430;48.204;11.556;2022-12-11T08:40:30;24.38;;;10.20;;
57605;SDS011;43430;48.204;11.556;2022-12-11T08:42:56;25.30;;;10.23;;
57605;SDS011;43430;48.204;11.556;2022-12-11T08:45:21;23.88;;;10.38;;
57605;SDS011;43430;48.204;11.556;2022-12-11T08:47:47;22.90;;;9.30;;
57605;SDS011;43430;48.204;11.556;2022-12-11T08:50:12;21.85;;;9.10;;
57605;SDS011;43430;48.204;11.556;2022-12-11T08:52:38;24.40;;;9.48;;
57605;SDS011;43430;48.204;11.556;2022-12-11T08:55:03;21.17;;;9.63;;
57605;SDS011;43430;48.204;11.556;2022-12-11T08:57:29;22.38;;;10.45;;
57605;SDS011;43430;48.204;11.556;2022-12-11T08:59:55;20.65;;;8.70;;
57605;SDS011;43430;48.204;11.556;2022-12-11T09:02:20;26.10;;;10.30;;
57605;SDS011;43430;48.204;11.556;2022-12-11T09:04:46;24.15;;;9.38;;
57605;SDS011;43430;48.204;11.556;2022-12-11T09:07:14;23.13;;;9.35;;
57605;SDS011;43430;48.204;11.556;2022-12-11T09:09:54;20.13;;;9.32;;
57605;SDS011;43430;48.204;11.556;2022-12-11T09:12:19;21.23;;;8.75;;
57605;SDS011;43430;48.204;11.556;2022-12-11T09:14:45;20.50;;;9.55;;
57605;SDS011;43430;48.204;11.556;2022-12-11T09:17:10;21.50;;;9.68;;
57605;SDS011;43430;48.204;11.556;2022-12-11T09:19:36;23.80;;;9.23;;
57605;SDS011;43430;48.204;11.556;2022-12-11T09:22:01;19.25;;;8.25;;
57605;SDS011;43430;48.204;11.556;2022-12-11T09:24:34;22.85;;;9.85;;
57605;SDS011;43430;48.204;11.556;2022-12-11T09:27:00;22.23;;;10.10;;
57605;SDS011;43430;48.204;11.556;2022-12-11T09:29:25;22.70;;;9.10;;
57605;SDS011;43430;48.204;11.556;2022-12-11T09:31:51;24.65;;;9.68;;
57605;SDS011;43430;48.204;11.556;2022-12-11T09:34:16;22.15;;;10.32;;
57605;SDS011;43430;48.204;11.556;2022-12-11T09:36:42;21.42;;;8.77;;
57605;SDS011;43430;48.204;11.556;2022-12-11T09:39:09;19.52;;;8.65;;
57605;SDS011;43430;48.204;11.556;2022-12-11T09:44:18;19.55;;;7.93;;
57605;SDS011;43430;48.204;11.556;2022-12-11T09:46:56;21.25;;;8.65;;
57605;SDS011;43430;48.204;11.556;2022-12-11T09:54:27;24.50;;;9.27;;
57605;SDS011;43430;48.204;11.556;2022-12-11T09:56:57;22.88;;;9.77;;
57605;SDS011;43430;48.204;11.556;2022-12-11T10:00:16;20.10;;;8.82;;
57605;SDS011;43430;48.204;11.556;2022-12-11T10:05:54;20.17;;;9.10;;
57605;SDS011;43430;48.204;11.556;2022-12-11T10:17:10;18.70;;;8.95;;
57605;SDS011;43430;48.204;11.556;2022-12-11T10:19:39;19.55;;;8.27;;
57605;SDS011;43430;48.204;11.556;2022-12-11T10:22:08;18.85;;;8.70;;
57605;SDS011;43430;48.204;11.556;2022-12-11T10:24:42;19.10;;;9.15;;
57605;SDS011;43430;48.204;11.556;2022-12-11T10:27:16;19.20;;;8.07;;
57605;SDS011;43430;48.204;11.556;2022-12-11T10:29:47;19.10;;;8.25;;
57605;SDS011;43430;48.204;11.556;2022-12-11T10:34:50;24.13;;;10.77;;
57605;SDS011;43430;48.204;11.556;2022-12-11T10:37:24;22.80;;;9.75;;
57605;SDS011;43430;48.204;11.556;2022-12-11T10:39:49;18.55;;;8.35;;
57605;SDS011;43430;48.204;11.556;2022-12-11T10:42:16;22.05;;;8.70;;
57605;SDS011;43430;48.204;11.556;2022-12-11T10:47:40;20.10;;;8.02;;
57605;SDS011;43430;48.204;11.556;2022-12-11T10:50:05;17.88;;;8.35;;
57605;SDS011;43430;48.204;11.556;2022-12-11T10:52:34;19.70;;;8.38;;
57605;SDS011;43430;48.204;11.556;2022-12-11T10:57:57;15.07;;;7.57;;
57605;SDS011;43430;48.204;11.556;2022-12-11T11:00:27;17.40;;;7.57;;
57605;SDS011;43430;48.204;11.556;2022-12-11T11:02:59;15.43;;;7.07;;
57605;SDS011;43430;48.204;11.556;2022-12-11T11:05:30;18.08;;;7.97;;
57605;SDS011;43430;48.204;11.556;2022-12-11T11:08:10;19.25;;;7.53;;
57605;SDS011;43430;48.204;11.556;2022-12-11T11:10:54;18.50;;;7.45;;
57605;SDS011;43430;48.204;11.556;2022-12-11T11:13:23;17.20;;;7.65;;
57605;SDS011;43430;48.204;11.556;2022-12-11T11:16:00;21.33;;;7.50;;
57605;SDS011;43430;48.204;11.556;2022-12-11T11:18:29;18.20;;;7.82;;
57605;SDS011;43430;48.204;11.556;2022-12-11T11:20:56;18.52;;;8.77;;
57605;SDS011;43430;48.204;11.556;2022-12-11T11:23:22;20.05;;;7.60;;
57605;SDS011;43430;48.204;11.556;2022-12-11T11:25:52;19.95;;;9.10;;
57605;SDS011;43430;48.204;11.556;2022-12-11T11:28:21;19.58;;;7.90;;
57605;SDS011;43430;48.204;11.556;2022-12-11T11:30:55;19.48;;;7.60;;
57605;SDS011;43430;48.204;11.556;2022-12-11T11:33:23;22.15;;;7.80;;
57605;SDS011;43430;48.204;11.556;2022-12-11T11:35:53;22.98;;;8.73;;
57605;SDS011;43430;48.204;11.556;2022-12-11T11:46:06;13.05;;;6.10;;
57605;SDS011;43430;48.204;11.556;2022-12-11T11:53:39;17.20;;;7.10;;
57605;SDS011;43430;48.204;11.556;2022-12-11T11:58:50;16.40;;;6.95;;
57605;SDS011;43430;48.204;11.556;2022-12-11T12:01:17;17.98;;;7.45;;
57605;SDS011;43430;48.204;11.556;2022-12-11T12:03:44;15.50;;;6.35;;
57605;SDS011;43430;48.204;11.556;2022-12-11T12:08:51;16.23;;;7.03;;
57605;SDS011;43430;48.204;11.556;2022-12-11T12:11:36;13.75;;;6.10;;
57605;SDS011;43430;48.204;11.556;2022-12-11T12:16:52;16.80;;;7.45;;
57605;SDS011;43430;48.204;11.556;2022-12-11T12:22:45;13.85;;;6.10;;
57605;SDS011;43430;48.204;11.556;2022-12-11T12:36:16;13.90;;;5.95;;
57605;SDS011;43430;48.204;11.556;2022-12-11T12:38:52;13.45;;;6.15;;
57605;SDS011;43430;48.204;11.556;2022-12-11T12:44:16;13.25;;;5.70;;
57605;SDS011;43430;48.204;11.556;2022-12-11T12:49:27;13.85;;;5.68;;
57605;SDS011;43430;48.204;11.556;2022-12-11T12:51:53;13.05;;;6.65;;
57605;SDS011;43430;48.204;11.556;2022-12-11T12:54:21;14.02;;;5.65;;
57605;SDS011;43430;48.204;11.556;2022-12-11T12:56:47;13.10;;;5.10;;
57605;SDS011;43430;48.204;11.556;2022-12-11T12:59:20;12.75;;;5.22;;
57605;SDS011;43430;48.204;11.556;2022-12-11T13:01:52;14.02;;;5.25;;
57605;SDS011;43430;48.204;11.556;2022-12-11T13:12:42;14.15;;;5.82;;
57605;SDS011;43430;48.204;11.556;2022-12-11T13:17:51;10.50;;;4.75;;
57605;SDS011;43430;48.204;11.556;2022-12-11T13:20:19;11.13;;;4.57;;
57605;SDS011;43430;48.204;11.556;2022-12-11T13:25:30;11.18;;;3.88;;
57605;SDS011;43430;48.204;11.556;2022-12-11T13:28:03;10.50;;;4.55;;
57605;SDS011;43430;48.204;11.556;2022-12-11T13:30:31;8.30;;;3.80;;
57605;SDS011;43430;48.204;11.556;2022-12-11T13:33:07;9.23;;;4.47;;
57605;SDS011;43430;48.204;11.556;2022-12-11T13:35:41;12.07;;;4.85;;
57605;SDS011;43430;48.204;11.556;2022-12-11T13:38:13;11.05;;;4.32;;
57605;SDS011;43430;48.204;11.556;2022-12-11T13:40:41;10.32;;;4.13;;
57605;SDS011;43430;48.204;11.556;2022-12-11T13:43:17;9.55;;;3.40;;
57605;SDS011;43430;48.204;11.556;2022-12-11T13:45:46;10.80;;;3.85;;
57605;SDS011;43430;48.204;11.556;2022-12-11T13:48:36;10.90;;;4.40;;
57605;SDS011;43430;48.204;11.556;2022-12-11T13:51:00;8.82;;;4.03;;
57605;SDS011;43430;48.204;11.556;2022-12-11T13:53:25;9.70;;;4.35;;
57605;SDS011;43430;48.204;11.556;2022-12-11T13:55:55;10.60;;;4.38;;
57605;SDS011;43430;48.204;11.556;2022-12-11T13:58:26;9.27;;;4.22;;
57605;SDS011;43430;48.204;11.556;2022-12-11T14:01:01;11.70;;;3.92;;
57605;SDS011;43430;48.204;11.556;2022-12-11T14:03:31;12.45;;;4.63;;
57605;SDS011;43430;48.204;11.556;2022-12-11T14:05:58;9.82;;;3.53;;
57605;SDS011;43430;48.204;11.556;2022-12-11T14:08:27;11.45;;;4.13;;
57605;SDS011;43430;48.204;11.556;2022-12-11T14:13:24;12.57;;;3.63;;
57605;SDS011;43430;48.204;11.556;2022-12-11T14:15:51;9.60;;;3.30;;
57605;SDS011;43430;48.204;11.556;2022-12-11T14:18:22;9.80;;;3.47;;
57605;SDS011;43430;48.204;11.556;2022-12-11T14:20:57;11.50;;;4.57;;
57605;SDS011;43430;48.204;11.556;2022-12-11T14:23:25;9.02;;;3.63;;
57605;SDS011;43430;48.204;11.556;2022-12-11T14:25:57;13.73;;;4.50;;
57605;SDS011;43430;48.204;11.556;2022-12-11T14:28:29;11.32;;;4.10;;
57605;SDS011;43430;48.204;11.556;2022-12-11T14:31:00;12.82;;;4.35;;
57605;SDS011;43430;48.204;11.556;2022-12-11T14:33:30;9.15;;;3.95;;
57605;SDS011;43430;48.204;11.556;2022-12-11T14:35:58;10.95;;;4.75;;
57605;SDS011;43430;48.204;11.556;2022-12-11T14:38:26;12.32;;;4.25;;
57605;SDS011;43430;48.204;11.556;2022-12-11T14:40:58;12.15;;;4.63;;
57605;SDS011;43430;48.204;11.556;2022-12-11T14:43:36;10.67;;;4.33;;
57605;SDS011;43430;48.204;11.556;2022-12-11T14:46:08;8.27;;;3.42;;
57605;SDS011;43430;48.204;11.556;2022-12-11T14:51:25;11.60;;;4.60;;
57605;SDS011;43430;48.204;11.556;2022-12-11T14:53:54;10.15;;;3.85;;
57605;SDS011;43430;48.204;11.556;2022-12-11T14:56:20;12.98;;;4.35;;
57605;SDS011;43430;48.204;11.556;2022-12-11T14:58:52;10.68;;;4.32;;
57605;SDS011;43430;48.204;11.556;2022-12-11T15:01:28;14.50;;;4.85;;
57605;SDS011;43430;48.204;11.556;2022-12-11T15:04:14;9.55;;;3.92;;
57605;SDS011;43430;48.204;11.556;2022-12-11T15:06:47;11.55;;;4.18;;
57605;SDS011;43430;48.204;11.556;2022-12-11T15:09:46;13.20;;;5.05;;
57605;SDS011;43430;48.204;11.556;2022-12-11T15:12:10;15.57;;;5.07;;
57605;SDS011;43430;48.204;11.556;2022-12-11T15:17:27;12.82;;;5.45;;
57605;SDS011;43430;48.204;11.556;2022-12-11T15:20:06;11.40;;;5.30;;
57605;SDS011;43430;48.204;11.556;2022-12-11T15:22:35;13.45;;;6.18;;
57605;SDS011;43430;48.204;11.556;2022-12-11T15:25:01;16.15;;;5.97;;
57605;SDS011;43430;48.204;11.556;2022-12-11T15:27:33;13.93;;;5.95;;
57605;SDS011;43430;48.204;11.556;2022-12-11T15:30:13;16.02;;;7.18;;
57605;SDS011;43430;48.204;11.556;2022-12-11T15:32:41;13.07;;;5.53;;
57605;SDS011;43430;48.204;11.556;2022-12-11T15:35:20;10.32;;;4.57;;
57605;SDS011;43430;48.204;11.556;2022-12-11T15:37:51;14.27;;;6.00;;
57605;SDS011;43430;48.204;11.556;2022-12-11T15:40:17;12.52;;;5.10;;
57605;SDS011;43430;48.204;11.556;2022-12-11T15:42:42;11.77;;;4.93;;
57605;SDS011;43430;48.204;11.556;2022-12-11T15:45:20;12.20;;;5.03;;
57605;SDS011;43430;48.204;11.556;2022-12-11T15:47:48;13.02;;;5.88;;
57605;SDS011;43430;48.204;11.556;2022-12-11T15:50:19;12.85;;;6.03;;
57605;SDS011;43430;48.204;11.556;2022-12-11T15:52:46;14.02;;;5.82;;
57605;SDS011;43430;48.204;11.556;2022-12-11T15:55:12;12.48;;;5.47;;
57605;SDS011;43430;48.204;11.556;2022-12-11T15:57:39;13.13;;;5.78;;
57605;SDS011;43430;48.204;11.556;2022-12-11T16:00:11;13.32;;;5.63;;
57605;SDS011;43430;48.204;11.556;2022-12-11T16:02:38;12.70;;;4.93;;
57605;SDS011;43430;48.204;11.556;2022-12-11T16:05:03;14.10;;;5.57;;
57605;SDS011;43430;48.204;11.556;2022-12-11T16:07:29;13.45;;;5.43;;
57605;SDS011;43430;48.204;11.556;2022-12-11T16:09:55;14.73;;;6.00;;
57605;SDS011;43430;48.204;11.556;2022-12-11T16:12:21;15.00;;;6.15;;
57605;SDS011;43430;48.204;11.556;2022-12-11T16:14:46;15.02;;;6.05;;
57605;SDS011;43430;48.204;11.556;2022-12-11T16:17:12;12.82;;;6.22;;
57605;SDS011;43430;48.204;11.556;2022-12-11T16:19:39;14.00;;;5.90;;
57605;SDS011;43430;48.204;11.556;2022-12-11T16:22:06;13.30;;;5.82;;
57605;SDS011;43430;48.204;11.556;2022-12-11T16:24:35;15.18;;;6.47;;
57605;SDS011;43430;48.204;11.556;2022-12-11T16:27:02;19.00;;;5.65;;